Terminal Aerodrome Forecast
Issued by NWS Cleveland, OH

Home | Current Version | Previous Version | Graphics & Text | Print | Product List | Glossary On
Versions: 1 2 3 4 5 6 7 8 9 10 11 12 13 14 15 16
000
FTUS41 KCLE 212335
TAFYNG
TAF
KYNG 212335Z 2200/2224 01010KT 6SM -RA BKN008 OVC015
     FM220300 02010KT P6SM BKN015 OVC030
     FM220800 03010KT 5SM -RASN OVC015
      TEMPO 2210/2214 3SM -FZRAPLSN OVC008
     FM221400 04010KT 3SM -RA SCT008 OVC012=

USA.gov is the U.S. government's official web portal to all federal, state and local government web resources and services.